This is the latest recevied weather packets stored in our database for station/object GW1545. If no packets are shown the sender has not sent any weather packets the latest 10 day(s).
| Time | Temp. | Humidity | Pressure | Rain* | Wind** | Luminosity | Snow |
|---|---|---|---|---|---|---|---|
| 1777674654 | 13.33° C | 61% | 1016.5 hPa | 0 mm | - | - | - |
| 1777671758 | 13.33° C | 61% | 1016.2 hPa | 0 mm | - | - | - |
| 1777661321 | 16.67° C | 51% | 1015.5 hPa | 0 mm | - | - | - |
| 1777660943 | 16.67° C | 51% | 1015.5 hPa | 0 mm | - | - | - |
| 1777658813 | 17.78° C | 47% | 1015.5 hPa | 0 mm | - | - | - |
| 1777653757 | 16.67° C | 47% | 1015.9 hPa | 0 mm | - | - | - |
| 1777646530 | 14.44° C | 63% | 1017.2 hPa | 0 mm | - | - | - |
| 1777645821 | 13.33° C | 64% | 1016.9 hPa | 0 mm | - | - | - |
| 1777645450 | 12.22° C | 66% | 1016.9 hPa | 0 mm | - | - | - |
| 1777643291 | 11.67° C | 72% | 1017.2 hPa | 0 mm | - | - | - |
| 1777639339 | 10° C | 75% | 1016.9 hPa | 0 mm | - | - | - |
| 1777638989 | 10.56° C | 75% | 1017.2 hPa | 0 mm | - | - | - |
| 1777638616 | 10° C | 76% | 1016.9 hPa | 0 mm | - | - | - |
| 1777630365 | 3.89° C | 94% | 1017.6 hPa | 0 mm | - | - | - |
| 1777629263 | 3.89° C | 94% | 1017.6 hPa | 0 mm | - | - | - |
| 1777628901 | 3.89° C | 94% | 1017.6 hPa | 0 mm | - | - | - |
| 1777626758 | 4.44° C | 93% | 1017.9 hPa | 0 mm | - | - | - |
| 1777625668 | 4.44° C | 93% | 1017.9 hPa | 0 mm | - | - | - |
| 1777624612 | 4.44° C | 93% | 1017.9 hPa | 0 mm | - | - | - |
| 1777624253 | 4.44° C | 92% | 1017.9 hPa | 0 mm | - | - | - |
| 1777623876 | 5° C | 92% | 1017.9 hPa | 0 mm | - | - | - |
| 1777623144 | 5° C | 91% | 1017.9 hPa | 0 mm | - | - | - |
| 1777621373 | 5.56° C | 89% | 1017.9 hPa | 0 mm | - | - | - |
| 1777620987 | 5.56° C | 89% | 1017.9 hPa | 0 mm | - | - | - |
| 1777618453 | 5.56° C | 88% | 1017.9 hPa | 0 mm | - | - | - |
* Rain since midnight (hover to see other rain measurements)
** Current wind speed in m/s (hover to see current wind gust speed)